sensor_id;sensor_type;location;lat;lon;timestamp;P1;durP1;ratioP1;P2;durP2;ratioP2
19235;SDS011;9752;54.270;12.470;2023-05-01T00:01:42;15.93;;;12.80;;
19235;SDS011;9752;54.270;12.470;2023-05-01T00:06:43;19.53;;;12.07;;
19235;SDS011;9752;54.270;12.470;2023-05-01T00:11:45;18.37;;;12.90;;
19235;SDS011;9752;54.270;12.470;2023-05-01T00:16:48;17.00;;;12.50;;
19235;SDS011;9752;54.270;12.470;2023-05-01T00:21:50;18.57;;;13.57;;
19235;SDS011;9752;54.270;12.470;2023-05-01T00:26:52;19.17;;;13.10;;
19235;SDS011;9752;54.270;12.470;2023-05-01T00:31:55;24.20;;;14.10;;
19235;SDS011;9752;54.270;12.470;2023-05-01T00:36:57;18.37;;;13.90;;
19235;SDS011;9752;54.270;12.470;2023-05-01T00:41:58;19.07;;;13.37;;
19235;SDS011;9752;54.270;12.470;2023-05-01T00:47:02;23.63;;;14.57;;
19235;SDS011;9752;54.270;12.470;2023-05-01T00:52:04;19.70;;;15.43;;
19235;SDS011;9752;54.270;12.470;2023-05-01T00:57:06;20.43;;;14.00;;
19235;SDS011;9752;54.270;12.470;2023-05-01T01:02:10;25.23;;;15.67;;
19235;SDS011;9752;54.270;12.470;2023-05-01T01:07:14;24.77;;;14.40;;
19235;SDS011;9752;54.270;12.470;2023-05-01T01:12:23;19.07;;;14.40;;
19235;SDS011;9752;54.270;12.470;2023-05-01T01:17:29;19.70;;;14.50;;
19235;SDS011;9752;54.270;12.470;2023-05-01T01:22:37;23.07;;;15.37;;
19235;SDS011;9752;54.270;12.470;2023-05-01T01:27:53;22.40;;;15.53;;
19235;SDS011;9752;54.270;12.470;2023-05-01T01:33:16;23.20;;;15.60;;
19235;SDS011;9752;54.270;12.470;2023-05-01T01:38:33;26.83;;;16.90;;
19235;SDS011;9752;54.270;12.470;2023-05-01T01:43:41;24.50;;;15.37;;
19235;SDS011;9752;54.270;12.470;2023-05-01T01:48:48;22.60;;;15.67;;
19235;SDS011;9752;54.270;12.470;2023-05-01T01:53:54;25.53;;;16.77;;
19235;SDS011;9752;54.270;12.470;2023-05-01T01:59:00;26.27;;;17.60;;
19235;SDS011;9752;54.270;12.470;2023-05-01T02:04:05;28.60;;;17.07;;
19235;SDS011;9752;54.270;12.470;2023-05-01T02:09:10;24.73;;;17.40;;
19235;SDS011;9752;54.270;12.470;2023-05-01T02:14:13;26.03;;;17.27;;
19235;SDS011;9752;54.270;12.470;2023-05-01T02:19:16;26.43;;;15.97;;
19235;SDS011;9752;54.270;12.470;2023-05-01T02:24:21;23.63;;;15.77;;
19235;SDS011;9752;54.270;12.470;2023-05-01T02:29:24;25.00;;;15.77;;
19235;SDS011;9752;54.270;12.470;2023-05-01T02:34:27;26.53;;;17.03;;
19235;SDS011;9752;54.270;12.470;2023-05-01T02:39:30;26.70;;;16.30;;
19235;SDS011;9752;54.270;12.470;2023-05-01T02:44:35;25.97;;;16.67;;
19235;SDS011;9752;54.270;12.470;2023-05-01T02:49:40;30.03;;;19.60;;
19235;SDS011;9752;54.270;12.470;2023-05-01T02:54:44;29.73;;;17.87;;
19235;SDS011;9752;54.270;12.470;2023-05-01T02:59:47;32.33;;;17.87;;
19235;SDS011;9752;54.270;12.470;2023-05-01T03:04:48;27.63;;;17.70;;
19235;SDS011;9752;54.270;12.470;2023-05-01T03:09:51;31.10;;;18.03;;
19235;SDS011;9752;54.270;12.470;2023-05-01T03:14:53;27.30;;;17.00;;
19235;SDS011;9752;54.270;12.470;2023-05-01T03:19:54;29.70;;;17.60;;
19235;SDS011;9752;54.270;12.470;2023-05-01T03:24:58;25.87;;;17.93;;
19235;SDS011;9752;54.270;12.470;2023-05-01T03:29:59;33.23;;;17.37;;
19235;SDS011;9752;54.270;12.470;2023-05-01T03:35:05;24.87;;;17.77;;
19235;SDS011;9752;54.270;12.470;2023-05-01T03:40:10;28.67;;;17.17;;
19235;SDS011;9752;54.270;12.470;2023-05-01T03:45:31;30.10;;;17.27;;
19235;SDS011;9752;54.270;12.470;2023-05-01T03:50:33;27.10;;;17.53;;
19235;SDS011;9752;54.270;12.470;2023-05-01T03:55:37;32.27;;;17.67;;
19235;SDS011;9752;54.270;12.470;2023-05-01T04:00:39;27.30;;;16.73;;
19235;SDS011;9752;54.270;12.470;2023-05-01T04:05:42;25.73;;;16.43;;
19235;SDS011;9752;54.270;12.470;2023-05-01T04:10:45;27.30;;;15.87;;
19235;SDS011;9752;54.270;12.470;2023-05-01T04:15:47;24.17;;;15.30;;
19235;SDS011;9752;54.270;12.470;2023-05-01T04:20:49;25.27;;;16.13;;
19235;SDS011;9752;54.270;12.470;2023-05-01T04:25:53;27.53;;;16.77;;
19235;SDS011;9752;54.270;12.470;2023-05-01T04:30:55;24.37;;;15.87;;
19235;SDS011;9752;54.270;12.470;2023-05-01T04:35:57;30.17;;;16.60;;
19235;SDS011;9752;54.270;12.470;2023-05-01T04:41:01;25.93;;;15.23;;
19235;SDS011;9752;54.270;12.470;2023-05-01T04:46:02;24.43;;;16.37;;
19235;SDS011;9752;54.270;12.470;2023-05-01T04:51:04;28.27;;;17.20;;
19235;SDS011;9752;54.270;12.470;2023-05-01T04:56:09;26.20;;;16.00;;
19235;SDS011;9752;54.270;12.470;2023-05-01T05:01:10;21.33;;;15.23;;
19235;SDS011;9752;54.270;12.470;2023-05-01T05:06:12;22.10;;;14.40;;
19235;SDS011;9752;54.270;12.470;2023-05-01T05:11:16;29.90;;;14.87;;
19235;SDS011;9752;54.270;12.470;2023-05-01T05:16:37;25.67;;;15.30;;
19235;SDS011;9752;54.270;12.470;2023-05-01T05:21:38;27.10;;;15.00;;
19235;SDS011;9752;54.270;12.470;2023-05-01T05:26:42;19.40;;;13.27;;
19235;SDS011;9752;54.270;12.470;2023-05-01T05:31:44;19.97;;;13.77;;
19235;SDS011;9752;54.270;12.470;2023-05-01T05:36:46;22.47;;;12.30;;
19235;SDS011;9752;54.270;12.470;2023-05-01T05:41:51;22.67;;;12.40;;
19235;SDS011;9752;54.270;12.470;2023-05-01T05:46:54;17.40;;;11.80;;
19235;SDS011;9752;54.270;12.470;2023-05-01T05:52:03;15.37;;;10.80;;
19235;SDS011;9752;54.270;12.470;2023-05-01T05:57:06;13.57;;;9.90;;
19235;SDS011;9752;54.270;12.470;2023-05-01T06:02:12;16.60;;;10.90;;
19235;SDS011;9752;54.270;12.470;2023-05-01T06:07:14;12.97;;;11.60;;
19235;SDS011;9752;54.270;12.470;2023-05-01T06:12:18;13.53;;;12.03;;
19235;SDS011;9752;54.270;12.470;2023-05-01T06:17:19;13.27;;;12.10;;
19235;SDS011;9752;54.270;12.470;2023-05-01T06:22:21;15.33;;;14.00;;
19235;SDS011;9752;54.270;12.470;2023-05-01T06:27:41;14.93;;;13.70;;
19235;SDS011;9752;54.270;12.470;2023-05-01T06:32:43;16.27;;;15.17;;
19235;SDS011;9752;54.270;12.470;2023-05-01T06:37:45;18.23;;;16.53;;
19235;SDS011;9752;54.270;12.470;2023-05-01T06:42:48;17.13;;;15.63;;
19235;SDS011;9752;54.270;12.470;2023-05-01T06:47:49;17.03;;;15.40;;
19235;SDS011;9752;54.270;12.470;2023-05-01T06:52:51;18.03;;;16.63;;
19235;SDS011;9752;54.270;12.470;2023-05-01T06:57:54;17.70;;;16.13;;
19235;SDS011;9752;54.270;12.470;2023-05-01T07:02:56;18.03;;;16.33;;
19235;SDS011;9752;54.270;12.470;2023-05-01T07:07:57;18.83;;;16.87;;
19235;SDS011;9752;54.270;12.470;2023-05-01T07:13:01;16.50;;;15.07;;
19235;SDS011;9752;54.270;12.470;2023-05-01T07:18:03;16.47;;;15.43;;
19235;SDS011;9752;54.270;12.470;2023-05-01T07:23:05;16.30;;;15.40;;
19235;SDS011;9752;54.270;12.470;2023-05-01T07:28:10;16.10;;;14.83;;
19235;SDS011;9752;54.270;12.470;2023-05-01T07:33:12;15.97;;;15.07;;
19235;SDS011;9752;54.270;12.470;2023-05-01T07:38:14;16.27;;;15.20;;
19235;SDS011;9752;54.270;12.470;2023-05-01T07:43:17;15.93;;;14.87;;
19235;SDS011;9752;54.270;12.470;2023-05-01T07:48:19;16.60;;;15.40;;
19235;SDS011;9752;54.270;12.470;2023-05-01T07:53:21;16.43;;;15.23;;
19235;SDS011;9752;54.270;12.470;2023-05-01T07:58:24;15.70;;;14.70;;
19235;SDS011;9752;54.270;12.470;2023-05-01T08:03:26;15.73;;;14.40;;
19235;SDS011;9752;54.270;12.470;2023-05-01T08:08:28;15.33;;;14.43;;
19235;SDS011;9752;54.270;12.470;2023-05-01T08:13:31;15.00;;;14.10;;
19235;SDS011;9752;54.270;12.470;2023-05-01T08:18:33;16.43;;;15.33;;
19235;SDS011;9752;54.270;12.470;2023-05-01T08:23:34;16.13;;;14.93;;
19235;SDS011;9752;54.270;12.470;2023-05-01T08:28:38;15.80;;;14.83;;
19235;SDS011;9752;54.270;12.470;2023-05-01T08:33:39;16.90;;;15.50;;
19235;SDS011;9752;54.270;12.470;2023-05-01T08:38:43;17.23;;;16.20;;
19235;SDS011;9752;54.270;12.470;2023-05-01T08:43:46;16.03;;;15.03;;
19235;SDS011;9752;54.270;12.470;2023-05-01T08:48:48;16.83;;;15.47;;
19235;SDS011;9752;54.270;12.470;2023-05-01T08:53:50;16.10;;;15.10;;
19235;SDS011;9752;54.270;12.470;2023-05-01T08:58:55;15.50;;;14.30;;
19235;SDS011;9752;54.270;12.470;2023-05-01T09:04:00;14.90;;;13.80;;
19235;SDS011;9752;54.270;12.470;2023-05-01T09:09:02;15.13;;;14.13;;
19235;SDS011;9752;54.270;12.470;2023-05-01T09:14:06;15.40;;;14.33;;
19235;SDS011;9752;54.270;12.470;2023-05-01T09:19:08;16.37;;;15.00;;
19235;SDS011;9752;54.270;12.470;2023-05-01T09:24:10;15.53;;;14.40;;
19235;SDS011;9752;54.270;12.470;2023-05-01T09:29:13;16.30;;;14.90;;
19235;SDS011;9752;54.270;12.470;2023-05-01T09:34:38;17.23;;;15.77;;
19235;SDS011;9752;54.270;12.470;2023-05-01T09:39:39;14.83;;;13.73;;
19235;SDS011;9752;54.270;12.470;2023-05-01T09:44:42;14.70;;;13.57;;
19235;SDS011;9752;54.270;12.470;2023-05-01T09:49:44;14.70;;;13.73;;
19235;SDS011;9752;54.270;12.470;2023-05-01T09:54:49;14.20;;;13.27;;
19235;SDS011;9752;54.270;12.470;2023-05-01T10:00:01;15.73;;;14.60;;
19235;SDS011;9752;54.270;12.470;2023-05-01T10:05:08;15.13;;;13.87;;
19235;SDS011;9752;54.270;12.470;2023-05-01T10:10:16;13.83;;;12.60;;
19235;SDS011;9752;54.270;12.470;2023-05-01T10:15:20;15.00;;;13.80;;
19235;SDS011;9752;54.270;12.470;2023-05-01T10:20:23;15.30;;;14.47;;
19235;SDS011;9752;54.270;12.470;2023-05-01T10:25:25;16.43;;;15.53;;
19235;SDS011;9752;54.270;12.470;2023-05-01T10:30:30;16.73;;;15.63;;
19235;SDS011;9752;54.270;12.470;2023-05-01T10:35:33;16.07;;;15.07;;
19235;SDS011;9752;54.270;12.470;2023-05-01T10:40:44;17.03;;;15.83;;
19235;SDS011;9752;54.270;12.470;2023-05-01T10:45:48;16.17;;;15.07;;
19235;SDS011;9752;54.270;12.470;2023-05-01T10:51:06;15.97;;;15.10;;
19235;SDS011;9752;54.270;12.470;2023-05-01T11:01:44;16.33;;;15.20;;
19235;SDS011;9752;54.270;12.470;2023-05-01T11:17:51;16.60;;;15.67;;
19235;SDS011;9752;54.270;12.470;2023-05-01T11:22:53;16.50;;;15.50;;
19235;SDS011;9752;54.270;12.470;2023-05-01T11:27:57;15.73;;;14.77;;
19235;SDS011;9752;54.270;12.470;2023-05-01T11:33:01;17.03;;;15.80;;
19235;SDS011;9752;54.270;12.470;2023-05-01T11:38:03;17.23;;;16.03;;
19235;SDS011;9752;54.270;12.470;2023-05-01T11:43:05;17.00;;;16.07;;
19235;SDS011;9752;54.270;12.470;2023-05-01T11:48:14;17.13;;;16.10;;
19235;SDS011;9752;54.270;12.470;2023-05-01T11:53:16;16.30;;;15.40;;
19235;SDS011;9752;54.270;12.470;2023-05-01T11:58:29;17.10;;;15.90;;
19235;SDS011;9752;54.270;12.470;2023-05-01T12:03:42;16.63;;;15.60;;
19235;SDS011;9752;54.270;12.470;2023-05-01T12:08:46;16.83;;;15.73;;
19235;SDS011;9752;54.270;12.470;2023-05-01T12:13:50;17.73;;;16.50;;
19235;SDS011;9752;54.270;12.470;2023-05-01T12:18:53;16.70;;;15.90;;
19235;SDS011;9752;54.270;12.470;2023-05-01T12:23:55;17.43;;;16.33;;
19235;SDS011;9752;54.270;12.470;2023-05-01T12:28:59;16.77;;;15.60;;
19235;SDS011;9752;54.270;12.470;2023-05-01T12:34:03;15.90;;;15.00;;
19235;SDS011;9752;54.270;12.470;2023-05-01T12:39:08;15.57;;;14.77;;
19235;SDS011;9752;54.270;12.470;2023-05-01T12:44:15;15.43;;;14.53;;
19235;SDS011;9752;54.270;12.470;2023-05-01T12:49:20;15.30;;;14.60;;
19235;SDS011;9752;54.270;12.470;2023-05-01T12:54:23;15.20;;;14.40;;
19235;SDS011;9752;54.270;12.470;2023-05-01T12:59:27;15.77;;;14.83;;
19235;SDS011;9752;54.270;12.470;2023-05-01T13:04:30;16.27;;;15.27;;
19235;SDS011;9752;54.270;12.470;2023-05-01T13:09:32;16.97;;;15.43;;
19235;SDS011;9752;54.270;12.470;2023-05-01T13:14:35;17.13;;;16.10;;
19235;SDS011;9752;54.270;12.470;2023-05-01T13:19:39;15.53;;;14.73;;
19235;SDS011;9752;54.270;12.470;2023-05-01T13:24:41;17.17;;;15.97;;
19235;SDS011;9752;54.270;12.470;2023-05-01T13:29:49;16.60;;;15.60;;
19235;SDS011;9752;54.270;12.470;2023-05-01T13:34:59;16.73;;;15.73;;
19235;SDS011;9752;54.270;12.470;2023-05-01T13:40:01;17.57;;;16.47;;
19235;SDS011;9752;54.270;12.470;2023-05-01T13:45:04;17.63;;;16.47;;
19235;SDS011;9752;54.270;12.470;2023-05-01T13:50:09;17.70;;;16.70;;
19235;SDS011;9752;54.270;12.470;2023-05-01T13:55:14;18.90;;;17.63;;
19235;SDS011;9752;54.270;12.470;2023-05-01T14:00:17;18.13;;;17.07;;
19235;SDS011;9752;54.270;12.470;2023-05-01T14:05:25;17.17;;;16.27;;
19235;SDS011;9752;54.270;12.470;2023-05-01T14:10:28;17.53;;;16.50;;
19235;SDS011;9752;54.270;12.470;2023-05-01T14:15:30;18.90;;;17.50;;
19235;SDS011;9752;54.270;12.470;2023-05-01T14:20:34;18.33;;;17.10;;
19235;SDS011;9752;54.270;12.470;2023-05-01T14:25:36;17.60;;;16.40;;
19235;SDS011;9752;54.270;12.470;2023-05-01T14:30:38;18.63;;;17.27;;
19235;SDS011;9752;54.270;12.470;2023-05-01T14:35:46;17.43;;;16.53;;
19235;SDS011;9752;54.270;12.470;2023-05-01T14:40:49;18.70;;;17.00;;
19235;SDS011;9752;54.270;12.470;2023-05-01T14:45:51;18.83;;;17.53;;
19235;SDS011;9752;54.270;12.470;2023-05-01T14:50:55;18.53;;;17.20;;
19235;SDS011;9752;54.270;12.470;2023-05-01T14:55:58;17.87;;;16.67;;
19235;SDS011;9752;54.270;12.470;2023-05-01T15:01:00;18.33;;;17.07;;
19235;SDS011;9752;54.270;12.470;2023-05-01T15:06:03;17.83;;;16.43;;
19235;SDS011;9752;54.270;12.470;2023-05-01T15:11:05;18.93;;;17.30;;
19235;SDS011;9752;54.270;12.470;2023-05-01T15:16:08;18.40;;;17.20;;
19235;SDS011;9752;54.270;12.470;2023-05-01T15:21:11;18.13;;;16.50;;
19235;SDS011;9752;54.270;12.470;2023-05-01T15:26:13;17.60;;;16.30;;
19235;SDS011;9752;54.270;12.470;2023-05-01T15:31:15;17.60;;;16.60;;
19235;SDS011;9752;54.270;12.470;2023-05-01T15:36:19;18.07;;;16.63;;
19235;SDS011;9752;54.270;12.470;2023-05-01T15:41:21;16.33;;;15.30;;
19235;SDS011;9752;54.270;12.470;2023-05-01T15:46:23;17.57;;;16.50;;
19235;SDS011;9752;54.270;12.470;2023-05-01T15:51:29;17.47;;;15.93;;
19235;SDS011;9752;54.270;12.470;2023-05-01T15:56:33;16.90;;;15.60;;
19235;SDS011;9752;54.270;12.470;2023-05-01T16:01:35;17.07;;;15.73;;
19235;SDS011;9752;54.270;12.470;2023-05-01T16:06:38;17.10;;;15.70;;
19235;SDS011;9752;54.270;12.470;2023-05-01T16:11:41;17.13;;;16.03;;
19235;SDS011;9752;54.270;12.470;2023-05-01T16:16:42;16.40;;;15.60;;
19235;SDS011;9752;54.270;12.470;2023-05-01T16:21:45;17.33;;;16.03;;
19235;SDS011;9752;54.270;12.470;2023-05-01T16:26:47;17.53;;;15.80;;
19235;SDS011;9752;54.270;12.470;2023-05-01T16:31:49;16.93;;;15.77;;
19235;SDS011;9752;54.270;12.470;2023-05-01T16:36:52;17.13;;;15.97;;
19235;SDS011;9752;54.270;12.470;2023-05-01T16:41:55;17.67;;;16.23;;
19235;SDS011;9752;54.270;12.470;2023-05-01T16:46:57;16.80;;;15.70;;
19235;SDS011;9752;54.270;12.470;2023-05-01T16:52:00;17.17;;;16.03;;
19235;SDS011;9752;54.270;12.470;2023-05-01T16:57:01;16.43;;;15.43;;
19235;SDS011;9752;54.270;12.470;2023-05-01T17:02:03;17.30;;;16.10;;
19235;SDS011;9752;54.270;12.470;2023-05-01T17:07:07;19.30;;;15.53;;
19235;SDS011;9752;54.270;12.470;2023-05-01T17:12:08;17.07;;;15.97;;
19235;SDS011;9752;54.270;12.470;2023-05-01T17:17:10;17.47;;;16.13;;
19235;SDS011;9752;54.270;12.470;2023-05-01T17:22:13;16.53;;;15.43;;
19235;SDS011;9752;54.270;12.470;2023-05-01T17:27:15;15.90;;;14.73;;
19235;SDS011;9752;54.270;12.470;2023-05-01T17:32:16;16.53;;;15.43;;
19235;SDS011;9752;54.270;12.470;2023-05-01T17:37:20;15.60;;;14.50;;
19235;SDS011;9752;54.270;12.470;2023-05-01T17:42:21;16.23;;;15.13;;
19235;SDS011;9752;54.270;12.470;2023-05-01T17:47:23;15.77;;;14.57;;
19235;SDS011;9752;54.270;12.470;2023-05-01T17:52:26;15.10;;;13.80;;
19235;SDS011;9752;54.270;12.470;2023-05-01T17:57:28;16.60;;;15.20;;
19235;SDS011;9752;54.270;12.470;2023-05-01T18:02:30;16.40;;;15.10;;
19235;SDS011;9752;54.270;12.470;2023-05-01T18:07:33;16.93;;;15.40;;
19235;SDS011;9752;54.270;12.470;2023-05-01T18:12:34;18.20;;;16.57;;
19235;SDS011;9752;54.270;12.470;2023-05-01T18:17:36;17.53;;;16.30;;
19235;SDS011;9752;54.270;12.470;2023-05-01T18:22:39;18.07;;;16.57;;
19235;SDS011;9752;54.270;12.470;2023-05-01T18:27:41;16.37;;;14.87;;
19235;SDS011;9752;54.270;12.470;2023-05-01T18:32:43;15.93;;;14.70;;
19235;SDS011;9752;54.270;12.470;2023-05-01T18:37:46;15.57;;;14.43;;
19235;SDS011;9752;54.270;12.470;2023-05-01T18:42:49;17.83;;;16.33;;
19235;SDS011;9752;54.270;12.470;2023-05-01T18:47:51;16.43;;;15.00;;
19235;SDS011;9752;54.270;12.470;2023-05-01T18:52:54;15.70;;;14.30;;
19235;SDS011;9752;54.270;12.470;2023-05-01T18:57:55;16.33;;;14.67;;
19235;SDS011;9752;54.270;12.470;2023-05-01T19:02:57;15.97;;;14.47;;
19235;SDS011;9752;54.270;12.470;2023-05-01T19:08:00;15.37;;;14.27;;
19235;SDS011;9752;54.270;12.470;2023-05-01T19:13:04;15.67;;;14.37;;
19235;SDS011;9752;54.270;12.470;2023-05-01T19:18:06;16.37;;;15.07;;
19235;SDS011;9752;54.270;12.470;2023-05-01T19:23:09;15.93;;;14.70;;
19235;SDS011;9752;54.270;12.470;2023-05-01T19:28:11;15.93;;;14.73;;
19235;SDS011;9752;54.270;12.470;2023-05-01T19:33:13;15.90;;;14.83;;
19235;SDS011;9752;54.270;12.470;2023-05-01T19:38:16;16.47;;;15.17;;
19235;SDS011;9752;54.270;12.470;2023-05-01T19:43:17;16.63;;;15.20;;
19235;SDS011;9752;54.270;12.470;2023-05-01T19:48:19;15.60;;;14.40;;
19235;SDS011;9752;54.270;12.470;2023-05-01T19:53:22;18.13;;;15.90;;
19235;SDS011;9752;54.270;12.470;2023-05-01T19:58:24;16.10;;;14.80;;
19235;SDS011;9752;54.270;12.470;2023-05-01T20:03:26;18.93;;;17.07;;
19235;SDS011;9752;54.270;12.470;2023-05-01T20:08:29;15.40;;;14.50;;
19235;SDS011;9752;54.270;12.470;2023-05-01T20:13:31;16.90;;;15.40;;
19235;SDS011;9752;54.270;12.470;2023-05-01T20:18:33;16.57;;;15.17;;
19235;SDS011;9752;54.270;12.470;2023-05-01T20:23:36;16.93;;;15.40;;
19235;SDS011;9752;54.270;12.470;2023-05-01T20:28:39;17.37;;;15.77;;
19235;SDS011;9752;54.270;12.470;2023-05-01T20:33:41;16.00;;;14.60;;
19235;SDS011;9752;54.270;12.470;2023-05-01T20:38:44;15.97;;;14.47;;
19235;SDS011;9752;54.270;12.470;2023-05-01T20:43:47;15.03;;;13.57;;
19235;SDS011;9752;54.270;12.470;2023-05-01T20:48:49;14.77;;;12.90;;
19235;SDS011;9752;54.270;12.470;2023-05-01T20:53:52;14.63;;;13.20;;
19235;SDS011;9752;54.270;12.470;2023-05-01T20:58:54;13.07;;;11.87;;
19235;SDS011;9752;54.270;12.470;2023-05-01T21:03:56;13.57;;;11.63;;
19235;SDS011;9752;54.270;12.470;2023-05-01T21:08:59;12.70;;;11.50;;
19235;SDS011;9752;54.270;12.470;2023-05-01T21:14:01;14.43;;;11.70;;
19235;SDS011;9752;54.270;12.470;2023-05-01T21:19:03;13.47;;;11.30;;
19235;SDS011;9752;54.270;12.470;2023-05-01T21:24:07;12.50;;;11.37;;
19235;SDS011;9752;54.270;12.470;2023-05-01T21:29:11;12.23;;;10.97;;
19235;SDS011;9752;54.270;12.470;2023-05-01T21:34:13;13.30;;;12.10;;
19235;SDS011;9752;54.270;12.470;2023-05-01T21:39:19;16.30;;;11.97;;
19235;SDS011;9752;54.270;12.470;2023-05-01T21:44:25;14.27;;;11.80;;
19235;SDS011;9752;54.270;12.470;2023-05-01T21:49:29;12.97;;;11.03;;
19235;SDS011;9752;54.270;12.470;2023-05-01T21:54:33;13.77;;;12.27;;
19235;SDS011;9752;54.270;12.470;2023-05-01T21:59:36;14.07;;;12.20;;
19235;SDS011;9752;54.270;12.470;2023-05-01T22:04:39;14.60;;;13.10;;
19235;SDS011;9752;54.270;12.470;2023-05-01T22:09:42;14.10;;;12.80;;
19235;SDS011;9752;54.270;12.470;2023-05-01T22:14:45;15.40;;;14.07;;
19235;SDS011;9752;54.270;12.470;2023-05-01T22:19:46;15.20;;;13.80;;
19235;SDS011;9752;54.270;12.470;2023-05-01T22:24:49;14.60;;;13.60;;
19235;SDS011;9752;54.270;12.470;2023-05-01T22:29:52;14.93;;;13.73;;
19235;SDS011;9752;54.270;12.470;2023-05-01T22:34:53;15.73;;;14.53;;
19235;SDS011;9752;54.270;12.470;2023-05-01T22:39:56;16.30;;;15.20;;
19235;SDS011;9752;54.270;12.470;2023-05-01T22:44:58;16.57;;;15.17;;
19235;SDS011;9752;54.270;12.470;2023-05-01T22:50:00;16.77;;;15.53;;
19235;SDS011;9752;54.270;12.470;2023-05-01T22:55:03;17.03;;;15.73;;
19235;SDS011;9752;54.270;12.470;2023-05-01T23:00:06;17.43;;;16.20;;
19235;SDS011;9752;54.270;12.470;2023-05-01T23:05:09;16.77;;;15.47;;
19235;SDS011;9752;54.270;12.470;2023-05-01T23:10:12;15.70;;;14.57;;
19235;SDS011;9752;54.270;12.470;2023-05-01T23:15:16;16.47;;;15.20;;
19235;SDS011;9752;54.270;12.470;2023-05-01T23:20:23;15.87;;;14.43;;
19235;SDS011;9752;54.270;12.470;2023-05-01T23:25:26;16.30;;;14.87;;
19235;SDS011;9752;54.270;12.470;2023-05-01T23:30:28;15.83;;;14.77;;
19235;SDS011;9752;54.270;12.470;2023-05-01T23:35:30;14.87;;;13.70;;
19235;SDS011;9752;54.270;12.470;2023-05-01T23:40:33;14.43;;;13.17;;
19235;SDS011;9752;54.270;12.470;2023-05-01T23:45:36;13.47;;;12.47;;
19235;SDS011;9752;54.270;12.470;2023-05-01T23:50:38;14.03;;;12.83;;
19235;SDS011;9752;54.270;12.470;2023-05-01T23:55:41;12.83;;;11.73;;
